Terminal Aerodrome Forecast
Issued by NWS

Home | Current Version | Previous Version | Text Only | Print | Product List | Glossary On
Versions: 1 2 3 4 5 6 7 8 9 10 11 12 13 14 15 16 17 18
000
FTUS43 KGRR 221753 CCA
TAFMKG
TAF COR
KMKG 221753Z 2218/2318 29010KT P6SM OVC015
     FM222100 29007KT P6SM OVC025
     FM230000 34003KT P6SM SCT040
     FM230800 28003KT 5SM BR VCSH BKN040=

USA.gov is the U.S. government's official web portal to all federal, state and local government web resources and services.